sensor_id;sensor_type;location;lat;lon;timestamp;P1;durP1;ratioP1;P2;durP2;ratioP2
23115;SDS011;11727;52.134;5.052;2023-07-31T00:00:36;1.35;;;0.60;;
23115;SDS011;11727;52.134;5.052;2023-07-31T00:03:02;1.90;;;0.73;;
23115;SDS011;11727;52.134;5.052;2023-07-31T00:05:27;6.60;;;1.60;;
23115;SDS011;11727;52.134;5.052;2023-07-31T00:07:53;5.75;;;1.95;;
23115;SDS011;11727;52.134;5.052;2023-07-31T00:10:19;5.78;;;1.85;;
23115;SDS011;11727;52.134;5.052;2023-07-31T00:12:45;6.45;;;1.75;;
23115;SDS011;11727;52.134;5.052;2023-07-31T00:15:11;9.27;;;2.25;;
23115;SDS011;11727;52.134;5.052;2023-07-31T00:17:38;16.65;;;3.50;;
23115;SDS011;11727;52.134;5.052;2023-07-31T00:20:04;15.65;;;3.80;;
23115;SDS011;11727;52.134;5.052;2023-07-31T00:22:30;13.45;;;3.63;;
23115;SDS011;11727;52.134;5.052;2023-07-31T00:24:56;20.48;;;5.20;;
23115;SDS011;11727;52.134;5.052;2023-07-31T00:27:22;19.30;;;3.90;;
23115;SDS011;11727;52.134;5.052;2023-07-31T00:29:48;13.88;;;4.20;;
23115;SDS011;11727;52.134;5.052;2023-07-31T00:32:14;12.82;;;3.83;;
23115;SDS011;11727;52.134;5.052;2023-07-31T00:34:39;20.70;;;4.30;;
23115;SDS011;11727;52.134;5.052;2023-07-31T00:37:05;16.67;;;4.85;;
23115;SDS011;11727;52.134;5.052;2023-07-31T00:39:31;13.60;;;3.58;;
23115;SDS011;11727;52.134;5.052;2023-07-31T00:41:56;11.43;;;2.35;;
23115;SDS011;11727;52.134;5.052;2023-07-31T00:44:22;5.75;;;2.00;;
23115;SDS011;11727;52.134;5.052;2023-07-31T00:46:48;12.45;;;3.50;;
23115;SDS011;11727;52.134;5.052;2023-07-31T00:49:14;16.58;;;3.47;;
23115;SDS011;11727;52.134;5.052;2023-07-31T00:51:41;11.68;;;3.28;;
23115;SDS011;11727;52.134;5.052;2023-07-31T00:54:06;14.07;;;3.20;;
23115;SDS011;11727;52.134;5.052;2023-07-31T00:56:32;10.07;;;2.50;;
23115;SDS011;11727;52.134;5.052;2023-07-31T00:58:58;11.80;;;2.17;;
23115;SDS011;11727;52.134;5.052;2023-07-31T01:01:24;6.75;;;1.80;;
23115;SDS011;11727;52.134;5.052;2023-07-31T01:03:50;6.57;;;1.58;;
23115;SDS011;11727;52.134;5.052;2023-07-31T01:06:34;4.03;;;1.52;;
23115;SDS011;11727;52.134;5.052;2023-07-31T01:09:09;7.53;;;1.40;;
23115;SDS011;11727;52.134;5.052;2023-07-31T01:11:48;3.20;;;1.17;;
23115;SDS011;11727;52.134;5.052;2023-07-31T01:14:21;7.75;;;1.77;;
23115;SDS011;11727;52.134;5.052;2023-07-31T01:16:47;9.60;;;2.67;;
23115;SDS011;11727;52.134;5.052;2023-07-31T01:19:13;10.07;;;2.45;;
23115;SDS011;11727;52.134;5.052;2023-07-31T01:27:38;15.82;;;3.42;;
23115;SDS011;11727;52.134;5.052;2023-07-31T01:30:16;15.38;;;3.13;;
23115;SDS011;11727;52.134;5.052;2023-07-31T01:32:47;12.43;;;2.88;;
23115;SDS011;11727;52.134;5.052;2023-07-31T01:35:14;9.98;;;3.40;;
23115;SDS011;11727;52.134;5.052;2023-07-31T01:37:40;11.48;;;3.47;;
23115;SDS011;11727;52.134;5.052;2023-07-31T01:40:06;18.23;;;3.85;;
23115;SDS011;11727;52.134;5.052;2023-07-31T01:42:32;17.23;;;4.35;;
23115;SDS011;11727;52.134;5.052;2023-07-31T01:44:57;13.38;;;3.72;;
23115;SDS011;11727;52.134;5.052;2023-07-31T01:47:23;15.05;;;3.83;;
23115;SDS011;11727;52.134;5.052;2023-07-31T01:49:49;18.27;;;4.07;;
23115;SDS011;11727;52.134;5.052;2023-07-31T01:52:14;16.70;;;4.10;;
23115;SDS011;11727;52.134;5.052;2023-07-31T01:54:40;15.25;;;3.67;;
23115;SDS011;11727;52.134;5.052;2023-07-31T01:57:06;15.00;;;3.40;;
23115;SDS011;11727;52.134;5.052;2023-07-31T01:59:31;14.15;;;3.30;;
23115;SDS011;11727;52.134;5.052;2023-07-31T02:01:57;16.75;;;3.90;;
23115;SDS011;11727;52.134;5.052;2023-07-31T02:04:23;17.33;;;3.80;;
23115;SDS011;11727;52.134;5.052;2023-07-31T02:06:48;12.43;;;3.45;;
23115;SDS011;11727;52.134;5.052;2023-07-31T02:09:14;12.70;;;3.60;;
23115;SDS011;11727;52.134;5.052;2023-07-31T02:11:39;17.20;;;3.20;;
23115;SDS011;11727;52.134;5.052;2023-07-31T02:14:05;19.58;;;4.25;;
23115;SDS011;11727;52.134;5.052;2023-07-31T02:16:31;15.15;;;4.35;;
23115;SDS011;11727;52.134;5.052;2023-07-31T02:18:56;19.45;;;4.22;;
23115;SDS011;11727;52.134;5.052;2023-07-31T02:21:22;19.70;;;4.43;;
23115;SDS011;11727;52.134;5.052;2023-07-31T02:23:48;19.67;;;4.18;;
23115;SDS011;11727;52.134;5.052;2023-07-31T02:26:13;16.23;;;4.38;;
23115;SDS011;11727;52.134;5.052;2023-07-31T02:28:39;21.80;;;4.53;;
23115;SDS011;11727;52.134;5.052;2023-07-31T02:31:07;16.23;;;3.80;;
23115;SDS011;11727;52.134;5.052;2023-07-31T02:33:33;14.50;;;3.72;;
23115;SDS011;11727;52.134;5.052;2023-07-31T02:35:59;14.70;;;3.03;;
23115;SDS011;11727;52.134;5.052;2023-07-31T02:38:27;18.33;;;3.85;;
23115;SDS011;11727;52.134;5.052;2023-07-31T02:40:52;16.23;;;3.53;;
23115;SDS011;11727;52.134;5.052;2023-07-31T02:43:18;20.05;;;4.85;;
23115;SDS011;11727;52.134;5.052;2023-07-31T02:45:44;13.15;;;3.90;;
23115;SDS011;11727;52.134;5.052;2023-07-31T02:48:09;11.23;;;3.92;;
23115;SDS011;11727;52.134;5.052;2023-07-31T02:50:35;12.90;;;3.28;;
23115;SDS011;11727;52.134;5.052;2023-07-31T02:53:00;18.83;;;4.03;;
23115;SDS011;11727;52.134;5.052;2023-07-31T02:55:26;21.23;;;4.53;;
23115;SDS011;11727;52.134;5.052;2023-07-31T02:57:51;20.60;;;4.75;;
23115;SDS011;11727;52.134;5.052;2023-07-31T03:00:17;21.25;;;4.72;;
23115;SDS011;11727;52.134;5.052;2023-07-31T03:02:44;16.48;;;4.20;;
23115;SDS011;11727;52.134;5.052;2023-07-31T03:05:09;19.05;;;4.60;;
23115;SDS011;11727;52.134;5.052;2023-07-31T03:07:35;15.95;;;4.13;;
23115;SDS011;11727;52.134;5.052;2023-07-31T03:10:00;20.45;;;4.70;;
23115;SDS011;11727;52.134;5.052;2023-07-31T03:12:26;17.38;;;3.53;;
23115;SDS011;11727;52.134;5.052;2023-07-31T03:14:52;21.60;;;4.50;;
23115;SDS011;11727;52.134;5.052;2023-07-31T03:17:18;16.67;;;4.28;;
23115;SDS011;11727;52.134;5.052;2023-07-31T03:19:43;22.52;;;4.45;;
23115;SDS011;11727;52.134;5.052;2023-07-31T03:22:09;25.77;;;4.60;;
23115;SDS011;11727;52.134;5.052;2023-07-31T03:24:34;21.58;;;4.32;;
23115;SDS011;11727;52.134;5.052;2023-07-31T03:27:00;12.90;;;3.55;;
23115;SDS011;11727;52.134;5.052;2023-07-31T03:29:26;16.67;;;4.35;;
23115;SDS011;11727;52.134;5.052;2023-07-31T03:31:51;9.20;;;3.40;;
23115;SDS011;11727;52.134;5.052;2023-07-31T03:34:17;24.05;;;4.82;;
23115;SDS011;11727;52.134;5.052;2023-07-31T03:36:43;16.25;;;3.80;;
23115;SDS011;11727;52.134;5.052;2023-07-31T03:39:09;11.05;;;3.38;;
23115;SDS011;11727;52.134;5.052;2023-07-31T03:41:34;24.58;;;4.13;;
23115;SDS011;11727;52.134;5.052;2023-07-31T03:44:00;15.30;;;4.25;;
23115;SDS011;11727;52.134;5.052;2023-07-31T03:46:26;19.95;;;3.58;;
23115;SDS011;11727;52.134;5.052;2023-07-31T03:48:51;14.98;;;3.10;;
23115;SDS011;11727;52.134;5.052;2023-07-31T03:51:17;13.13;;;4.68;;
23115;SDS011;11727;52.134;5.052;2023-07-31T03:53:43;21.40;;;4.15;;
23115;SDS011;11727;52.134;5.052;2023-07-31T03:56:09;18.55;;;4.13;;
23115;SDS011;11727;52.134;5.052;2023-07-31T03:58:35;13.40;;;3.65;;
23115;SDS011;11727;52.134;5.052;2023-07-31T04:01:01;15.95;;;4.28;;
23115;SDS011;11727;52.134;5.052;2023-07-31T04:03:28;20.50;;;4.10;;
23115;SDS011;11727;52.134;5.052;2023-07-31T04:05:54;22.90;;;4.88;;
23115;SDS011;11727;52.134;5.052;2023-07-31T04:08:21;17.23;;;4.30;;
23115;SDS011;11727;52.134;5.052;2023-07-31T04:10:49;12.02;;;3.45;;
23115;SDS011;11727;52.134;5.052;2023-07-31T04:13:15;13.52;;;4.20;;
23115;SDS011;11727;52.134;5.052;2023-07-31T04:15:41;12.90;;;3.85;;
23115;SDS011;11727;52.134;5.052;2023-07-31T04:18:07;16.10;;;4.72;;
23115;SDS011;11727;52.134;5.052;2023-07-31T04:20:32;15.10;;;4.43;;
23115;SDS011;11727;52.134;5.052;2023-07-31T04:22:58;15.73;;;4.32;;
23115;SDS011;11727;52.134;5.052;2023-07-31T04:25:24;14.65;;;4.63;;
23115;SDS011;11727;52.134;5.052;2023-07-31T04:27:49;16.48;;;4.18;;
23115;SDS011;11727;52.134;5.052;2023-07-31T04:30:15;19.80;;;4.72;;
23115;SDS011;11727;52.134;5.052;2023-07-31T04:32:40;16.17;;;4.35;;
23115;SDS011;11727;52.134;5.052;2023-07-31T04:35:06;11.68;;;4.15;;
23115;SDS011;11727;52.134;5.052;2023-07-31T04:37:32;15.48;;;4.15;;
23115;SDS011;11727;52.134;5.052;2023-07-31T04:39:58;11.75;;;4.18;;
23115;SDS011;11727;52.134;5.052;2023-07-31T04:42:23;11.45;;;3.65;;
23115;SDS011;11727;52.134;5.052;2023-07-31T04:44:49;12.90;;;4.50;;
23115;SDS011;11727;52.134;5.052;2023-07-31T04:47:14;16.05;;;4.80;;
23115;SDS011;11727;52.134;5.052;2023-07-31T04:49:40;12.55;;;3.80;;
23115;SDS011;11727;52.134;5.052;2023-07-31T04:52:06;14.57;;;3.80;;
23115;SDS011;11727;52.134;5.052;2023-07-31T04:54:31;15.60;;;4.57;;
23115;SDS011;11727;52.134;5.052;2023-07-31T04:56:57;13.40;;;3.88;;
23115;SDS011;11727;52.134;5.052;2023-07-31T04:59:23;13.23;;;4.03;;
23115;SDS011;11727;52.134;5.052;2023-07-31T05:01:48;9.65;;;3.88;;
23115;SDS011;11727;52.134;5.052;2023-07-31T05:04:14;13.00;;;3.28;;
23115;SDS011;11727;52.134;5.052;2023-07-31T05:06:40;12.43;;;3.72;;
23115;SDS011;11727;52.134;5.052;2023-07-31T05:09:06;9.57;;;3.22;;
23115;SDS011;11727;52.134;5.052;2023-07-31T05:14:00;7.40;;;2.95;;
23115;SDS011;11727;52.134;5.052;2023-07-31T05:16:25;8.02;;;3.08;;
23115;SDS011;11727;52.134;5.052;2023-07-31T05:18:51;7.30;;;2.85;;
23115;SDS011;11727;52.134;5.052;2023-07-31T05:21:17;9.40;;;3.25;;
23115;SDS011;11727;52.134;5.052;2023-07-31T05:23:42;6.50;;;2.47;;
23115;SDS011;11727;52.134;5.052;2023-07-31T05:26:08;7.53;;;2.38;;
23115;SDS011;11727;52.134;5.052;2023-07-31T05:28:36;8.07;;;3.03;;
23115;SDS011;11727;52.134;5.052;2023-07-31T05:31:03;9.48;;;2.92;;
23115;SDS011;11727;52.134;5.052;2023-07-31T05:33:29;8.30;;;3.20;;
23115;SDS011;11727;52.134;5.052;2023-07-31T05:35:55;8.90;;;2.60;;
23115;SDS011;11727;52.134;5.052;2023-07-31T05:38:21;10.23;;;3.05;;
23115;SDS011;11727;52.134;5.052;2023-07-31T05:40:47;7.72;;;2.65;;
23115;SDS011;11727;52.134;5.052;2023-07-31T05:43:13;8.88;;;2.70;;
23115;SDS011;11727;52.134;5.052;2023-07-31T05:45:39;10.77;;;2.92;;
23115;SDS011;11727;52.134;5.052;2023-07-31T05:48:07;6.57;;;2.42;;
23115;SDS011;11727;52.134;5.052;2023-07-31T05:50:32;8.40;;;2.75;;
23115;SDS011;11727;52.134;5.052;2023-07-31T05:52:58;8.60;;;2.38;;
23115;SDS011;11727;52.134;5.052;2023-07-31T05:55:24;7.40;;;2.67;;
23115;SDS011;11727;52.134;5.052;2023-07-31T05:57:52;5.40;;;1.92;;
23115;SDS011;11727;52.134;5.052;2023-07-31T06:00:18;5.18;;;2.20;;
23115;SDS011;11727;52.134;5.052;2023-07-31T06:02:43;9.10;;;3.25;;
23115;SDS011;11727;52.134;5.052;2023-07-31T06:05:09;9.30;;;3.03;;
23115;SDS011;11727;52.134;5.052;2023-07-31T06:07:35;8.70;;;2.42;;
23115;SDS011;11727;52.134;5.052;2023-07-31T06:10:00;5.95;;;2.22;;
23115;SDS011;11727;52.134;5.052;2023-07-31T06:12:30;5.00;;;1.98;;
23115;SDS011;11727;52.134;5.052;2023-07-31T06:14:59;6.65;;;2.33;;
23115;SDS011;11727;52.134;5.052;2023-07-31T06:17:25;9.85;;;2.45;;
23115;SDS011;11727;52.134;5.052;2023-07-31T06:19:51;8.93;;;2.85;;
23115;SDS011;11727;52.134;5.052;2023-07-31T06:22:17;10.40;;;2.20;;
23115;SDS011;11727;52.134;5.052;2023-07-31T06:24:43;6.63;;;2.15;;
23115;SDS011;11727;52.134;5.052;2023-07-31T06:27:09;4.47;;;1.80;;
23115;SDS011;11727;52.134;5.052;2023-07-31T06:29:35;5.80;;;1.75;;
23115;SDS011;11727;52.134;5.052;2023-07-31T06:32:01;6.03;;;2.03;;
23115;SDS011;11727;52.134;5.052;2023-07-31T06:34:27;5.93;;;1.98;;
23115;SDS011;11727;52.134;5.052;2023-07-31T06:36:52;5.93;;;1.98;;
23115;SDS011;11727;52.134;5.052;2023-07-31T06:39:18;6.80;;;1.83;;
23115;SDS011;11727;52.134;5.052;2023-07-31T06:41:44;4.43;;;1.83;;
23115;SDS011;11727;52.134;5.052;2023-07-31T06:44:10;6.63;;;1.65;;
23115;SDS011;11727;52.134;5.052;2023-07-31T06:46:36;4.43;;;1.90;;
23115;SDS011;11727;52.134;5.052;2023-07-31T06:49:01;6.47;;;1.63;;
23115;SDS011;11727;52.134;5.052;2023-07-31T06:51:27;5.05;;;2.20;;
23115;SDS011;11727;52.134;5.052;2023-07-31T06:53:53;4.80;;;1.83;;
23115;SDS011;11727;52.134;5.052;2023-07-31T06:56:18;8.68;;;1.83;;
23115;SDS011;11727;52.134;5.052;2023-07-31T06:58:44;3.25;;;1.85;;
23115;SDS011;11727;52.134;5.052;2023-07-31T07:01:09;4.32;;;1.80;;
23115;SDS011;11727;52.134;5.052;2023-07-31T07:03:35;2.60;;;1.42;;
23115;SDS011;11727;52.134;5.052;2023-07-31T07:06:00;5.10;;;1.40;;
23115;SDS011;11727;52.134;5.052;2023-07-31T07:08:26;5.75;;;1.60;;
23115;SDS011;11727;52.134;5.052;2023-07-31T07:10:52;3.55;;;1.30;;
23115;SDS011;11727;52.134;5.052;2023-07-31T07:13:17;4.65;;;1.50;;
23115;SDS011;11727;52.134;5.052;2023-07-31T07:15:49;3.70;;;1.30;;
23115;SDS011;11727;52.134;5.052;2023-07-31T07:18:15;2.97;;;1.40;;
23115;SDS011;11727;52.134;5.052;2023-07-31T07:20:49;3.38;;;1.23;;
23115;SDS011;11727;52.134;5.052;2023-07-31T07:23:15;3.33;;;1.00;;
23115;SDS011;11727;52.134;5.052;2023-07-31T07:25:41;3.83;;;0.98;;
23115;SDS011;11727;52.134;5.052;2023-07-31T07:28:08;2.10;;;1.08;;
23115;SDS011;11727;52.134;5.052;2023-07-31T07:30:34;4.35;;;1.00;;
23115;SDS011;11727;52.134;5.052;2023-07-31T07:32:59;3.67;;;0.95;;
23115;SDS011;11727;52.134;5.052;2023-07-31T07:35:25;3.22;;;1.02;;
23115;SDS011;11727;52.134;5.052;2023-07-31T07:37:51;2.65;;;1.40;;
23115;SDS011;11727;52.134;5.052;2023-07-31T07:40:16;3.90;;;1.50;;
23115;SDS011;11727;52.134;5.052;2023-07-31T07:42:42;2.97;;;1.48;;
23115;SDS011;11727;52.134;5.052;2023-07-31T07:45:07;2.80;;;1.38;;
23115;SDS011;11727;52.134;5.052;2023-07-31T07:47:34;2.65;;;1.15;;
23115;SDS011;11727;52.134;5.052;2023-07-31T07:49:59;4.63;;;1.15;;
23115;SDS011;11727;52.134;5.052;2023-07-31T07:52:25;5.00;;;1.20;;
23115;SDS011;11727;52.134;5.052;2023-07-31T07:54:50;3.45;;;1.30;;
23115;SDS011;11727;52.134;5.052;2023-07-31T07:57:16;2.95;;;1.13;;
23115;SDS011;11727;52.134;5.052;2023-07-31T07:59:42;1.08;;;0.68;;
23115;SDS011;11727;52.134;5.052;2023-07-31T08:02:07;1.88;;;0.77;;
23115;SDS011;11727;52.134;5.052;2023-07-31T08:04:33;1.85;;;0.70;;
23115;SDS011;11727;52.134;5.052;2023-07-31T08:06:59;1.80;;;0.90;;
23115;SDS011;11727;52.134;5.052;2023-07-31T08:09:24;1.90;;;1.10;;
23115;SDS011;11727;52.134;5.052;2023-07-31T08:11:50;1.60;;;0.80;;
23115;SDS011;11727;52.134;5.052;2023-07-31T08:14:15;1.92;;;0.80;;
23115;SDS011;11727;52.134;5.052;2023-07-31T08:16:42;3.53;;;1.05;;
23115;SDS011;11727;52.134;5.052;2023-07-31T08:19:07;2.95;;;0.95;;
23115;SDS011;11727;52.134;5.052;2023-07-31T08:21:33;3.75;;;0.98;;
23115;SDS011;11727;52.134;5.052;2023-07-31T08:23:59;3.28;;;1.00;;
23115;SDS011;11727;52.134;5.052;2023-07-31T08:26:24;2.65;;;0.90;;
23115;SDS011;11727;52.134;5.052;2023-07-31T08:28:50;1.85;;;0.85;;
23115;SDS011;11727;52.134;5.052;2023-07-31T08:31:15;2.55;;;0.70;;
23115;SDS011;11727;52.134;5.052;2023-07-31T08:33:41;2.13;;;1.20;;
23115;SDS011;11727;52.134;5.052;2023-07-31T08:36:07;1.23;;;0.68;;
23115;SDS011;11727;52.134;5.052;2023-07-31T08:38:32;2.85;;;0.70;;
23115;SDS011;11727;52.134;5.052;2023-07-31T08:40:58;1.85;;;0.88;;
23115;SDS011;11727;52.134;5.052;2023-07-31T08:43:25;2.83;;;0.75;;
23115;SDS011;11727;52.134;5.052;2023-07-31T08:45:51;1.30;;;0.90;;
23115;SDS011;11727;52.134;5.052;2023-07-31T08:48:17;1.92;;;0.80;;
23115;SDS011;11727;52.134;5.052;2023-07-31T08:50:44;0.95;;;0.60;;
23115;SDS011;11727;52.134;5.052;2023-07-31T08:53:10;1.63;;;0.60;;
23115;SDS011;11727;52.134;5.052;2023-07-31T08:55:36;0.77;;;0.50;;
23115;SDS011;11727;52.134;5.052;2023-07-31T08:58:04;1.50;;;0.57;;
23115;SDS011;11727;52.134;5.052;2023-07-31T09:00:30;0.68;;;0.50;;
23115;SDS011;11727;52.134;5.052;2023-07-31T09:02:59;4.63;;;0.70;;
23115;SDS011;11727;52.134;5.052;2023-07-31T09:05:28;1.23;;;0.60;;
23115;SDS011;11727;52.134;5.052;2023-07-31T09:07:54;1.40;;;0.50;;
23115;SDS011;11727;52.134;5.052;2023-07-31T09:10:22;1.63;;;0.68;;
23115;SDS011;11727;52.134;5.052;2023-07-31T09:12:48;1.08;;;0.50;;
23115;SDS011;11727;52.134;5.052;2023-07-31T09:15:15;1.00;;;0.52;;
23115;SDS011;11727;52.134;5.052;2023-07-31T09:17:41;1.15;;;0.47;;
23115;SDS011;11727;52.134;5.052;2023-07-31T09:20:20;2.97;;;0.50;;
23115;SDS011;11727;52.134;5.052;2023-07-31T09:22:46;0.75;;;0.40;;
23115;SDS011;11727;52.134;5.052;2023-07-31T09:25:16;1.33;;;0.40;;
23115;SDS011;11727;52.134;5.052;2023-07-31T09:28:02;0.50;;;0.35;;
23115;SDS011;11727;52.134;5.052;2023-07-31T09:30:29;1.58;;;0.57;;
23115;SDS011;11727;52.134;5.052;2023-07-31T09:33:03;0.88;;;0.50;;
23115;SDS011;11727;52.134;5.052;2023-07-31T09:35:32;0.85;;;0.55;;
23115;SDS011;11727;52.134;5.052;2023-07-31T09:38:04;1.23;;;0.50;;
23115;SDS011;11727;52.134;5.052;2023-07-31T09:40:44;1.45;;;0.60;;
23115;SDS011;11727;52.134;5.052;2023-07-31T09:43:17;1.25;;;0.80;;
23115;SDS011;11727;52.134;5.052;2023-07-31T09:45:44;0.88;;;0.50;;
23115;SDS011;11727;52.134;5.052;2023-07-31T09:48:11;2.33;;;0.70;;
23115;SDS011;11727;52.134;5.052;2023-07-31T09:50:38;0.82;;;0.55;;
23115;SDS011;11727;52.134;5.052;2023-07-31T09:53:06;1.48;;;0.80;;
23115;SDS011;11727;52.134;5.052;2023-07-31T09:55:33;3.03;;;0.83;;
23115;SDS011;11727;52.134;5.052;2023-07-31T09:57:59;0.98;;;0.77;;
23115;SDS011;11727;52.134;5.052;2023-07-31T10:00:32;1.90;;;1.08;;
23115;SDS011;11727;52.134;5.052;2023-07-31T10:03:04;1.85;;;1.05;;
23115;SDS011;11727;52.134;5.052;2023-07-31T10:05:34;2.15;;;1.02;;
23115;SDS011;11727;52.134;5.052;2023-07-31T10:08:01;1.63;;;0.93;;
23115;SDS011;11727;52.134;5.052;2023-07-31T10:10:31;3.67;;;1.13;;
23115;SDS011;11727;52.134;5.052;2023-07-31T10:12:57;1.75;;;1.00;;
23115;SDS011;11727;52.134;5.052;2023-07-31T10:15:23;1.33;;;0.70;;
23115;SDS011;11727;52.134;5.052;2023-07-31T10:17:50;1.63;;;1.03;;
23115;SDS011;11727;52.134;5.052;2023-07-31T10:20:16;1.98;;;1.00;;
23115;SDS011;11727;52.134;5.052;2023-07-31T10:22:43;1.58;;;1.00;;
23115;SDS011;11727;52.134;5.052;2023-07-31T10:25:11;1.83;;;1.02;;
23115;SDS011;11727;52.134;5.052;2023-07-31T10:27:38;2.85;;;1.48;;
23115;SDS011;11727;52.134;5.052;2023-07-31T10:30:05;1.23;;;0.90;;
23115;SDS011;11727;52.134;5.052;2023-07-31T10:32:32;2.22;;;1.23;;
23115;SDS011;11727;52.134;5.052;2023-07-31T10:35:00;4.57;;;1.52;;
23115;SDS011;11727;52.134;5.052;2023-07-31T10:37:29;2.30;;;1.48;;
23115;SDS011;11727;52.134;5.052;2023-07-31T10:40:02;1.63;;;0.90;;
23115;SDS011;11727;52.134;5.052;2023-07-31T10:44:59;3.05;;;1.50;;
23115;SDS011;11727;52.134;5.052;2023-07-31T10:47:27;3.17;;;1.60;;
23115;SDS011;11727;52.134;5.052;2023-07-31T10:49:52;2.55;;;1.70;;
23115;SDS011;11727;52.134;5.052;2023-07-31T10:52:35;3.28;;;1.35;;
23115;SDS011;11727;52.134;5.052;2023-07-31T10:55:23;5.70;;;1.80;;
23115;SDS011;11727;52.134;5.052;2023-07-31T10:58:07;4.18;;;1.52;;
23115;SDS011;11727;52.134;5.052;2023-07-31T11:00:36;2.72;;;1.52;;
23115;SDS011;11727;52.134;5.052;2023-07-31T11:03:18;4.45;;;2.13;;
23115;SDS011;11727;52.134;5.052;2023-07-31T11:08:31;8.18;;;2.38;;
23115;SDS011;11727;52.134;5.052;2023-07-31T11:13:30;2.92;;;1.50;;
23115;SDS011;11727;52.134;5.052;2023-07-31T11:16:04;8.88;;;1.98;;
23115;SDS011;11727;52.134;5.052;2023-07-31T11:18:30;7.78;;;1.85;;
23115;SDS011;11727;52.134;5.052;2023-07-31T11:20:56;5.22;;;2.63;;
23115;SDS011;11727;52.134;5.052;2023-07-31T11:23:22;3.92;;;2.15;;
23115;SDS011;11727;52.134;5.052;2023-07-31T11:25:48;5.18;;;2.28;;
23115;SDS011;11727;52.134;5.052;2023-07-31T11:28:14;6.45;;;2.55;;
23115;SDS011;11727;52.134;5.052;2023-07-31T11:30:42;7.32;;;2.83;;
23115;SDS011;11727;52.134;5.052;2023-07-31T11:33:09;5.00;;;2.60;;
23115;SDS011;11727;52.134;5.052;2023-07-31T11:35:40;7.72;;;2.05;;
23115;SDS011;11727;52.134;5.052;2023-07-31T11:38:09;3.90;;;1.75;;
23115;SDS011;11727;52.134;5.052;2023-07-31T11:40:56;7.35;;;1.80;;
23115;SDS011;11727;52.134;5.052;2023-07-31T11:43:24;4.88;;;2.28;;
23115;SDS011;11727;52.134;5.052;2023-07-31T11:45:51;5.35;;;2.50;;
23115;SDS011;11727;52.134;5.052;2023-07-31T11:48:23;5.40;;;1.90;;
23115;SDS011;11727;52.134;5.052;2023-07-31T11:50:54;8.30;;;2.63;;
23115;SDS011;11727;52.134;5.052;2023-07-31T11:56:06;6.03;;;2.85;;
23115;SDS011;11727;52.134;5.052;2023-07-31T12:01:00;8.75;;;2.65;;
23115;SDS011;11727;52.134;5.052;2023-07-31T12:03:26;6.90;;;2.80;;
23115;SDS011;11727;52.134;5.052;2023-07-31T12:05:52;7.32;;;3.65;;
23115;SDS011;11727;52.134;5.052;2023-07-31T12:08:20;7.35;;;2.88;;
23115;SDS011;11727;52.134;5.052;2023-07-31T12:10:49;7.47;;;3.30;;
23115;SDS011;11727;52.134;5.052;2023-07-31T12:15:48;4.68;;;3.22;;
23115;SDS011;11727;52.134;5.052;2023-07-31T12:18:19;7.63;;;2.65;;
23115;SDS011;11727;52.134;5.052;2023-07-31T12:20:49;8.60;;;3.53;;
23115;SDS011;11727;52.134;5.052;2023-07-31T12:23:27;7.07;;;3.13;;
23115;SDS011;11727;52.134;5.052;2023-07-31T12:31:05;6.88;;;4.35;;
23115;SDS011;11727;52.134;5.052;2023-07-31T12:33:33;6.10;;;3.60;;
23115;SDS011;11727;52.134;5.052;2023-07-31T12:36:03;5.50;;;3.35;;
23115;SDS011;11727;52.134;5.052;2023-07-31T12:38:30;6.47;;;3.33;;
23115;SDS011;11727;52.134;5.052;2023-07-31T12:40:55;6.65;;;3.28;;
23115;SDS011;11727;52.134;5.052;2023-07-31T12:43:21;8.88;;;3.53;;
23115;SDS011;11727;52.134;5.052;2023-07-31T12:45:47;6.60;;;3.50;;
23115;SDS011;11727;52.134;5.052;2023-07-31T12:48:13;10.48;;;3.45;;
23115;SDS011;11727;52.134;5.052;2023-07-31T12:50:38;10.15;;;3.40;;
23115;SDS011;11727;52.134;5.052;2023-07-31T12:53:04;6.72;;;2.92;;
23115;SDS011;11727;52.134;5.052;2023-07-31T12:55:30;8.10;;;2.80;;
23115;SDS011;11727;52.134;5.052;2023-07-31T12:57:59;4.03;;;2.40;;
23115;SDS011;11727;52.134;5.052;2023-07-31T13:00:25;4.93;;;2.50;;
23115;SDS011;11727;52.134;5.052;2023-07-31T13:02:51;6.22;;;2.75;;
23115;SDS011;11727;52.134;5.052;2023-07-31T13:05:17;4.03;;;2.90;;
23115;SDS011;11727;52.134;5.052;2023-07-31T13:07:44;5.22;;;2.58;;
23115;SDS011;11727;52.134;5.052;2023-07-31T13:10:10;6.50;;;3.47;;
23115;SDS011;11727;52.134;5.052;2023-07-31T13:12:35;4.80;;;2.53;;
23115;SDS011;11727;52.134;5.052;2023-07-31T13:15:01;6.40;;;3.13;;
23115;SDS011;11727;52.134;5.052;2023-07-31T13:17:27;8.68;;;3.80;;
23115;SDS011;11727;52.134;5.052;2023-07-31T13:19:52;5.13;;;2.95;;
23115;SDS011;11727;52.134;5.052;2023-07-31T13:22:18;4.55;;;2.97;;
23115;SDS011;11727;52.134;5.052;2023-07-31T13:24:43;9.93;;;2.83;;
23115;SDS011;11727;52.134;5.052;2023-07-31T13:27:09;6.10;;;2.63;;
23115;SDS011;11727;52.134;5.052;2023-07-31T13:29:35;4.50;;;2.05;;
23115;SDS011;11727;52.134;5.052;2023-07-31T13:32:00;3.80;;;1.98;;
23115;SDS011;11727;52.134;5.052;2023-07-31T13:34:26;5.88;;;2.65;;
23115;SDS011;11727;52.134;5.052;2023-07-31T13:36:53;4.35;;;1.95;;
23115;SDS011;11727;52.134;5.052;2023-07-31T13:39:20;4.60;;;1.70;;
23115;SDS011;11727;52.134;5.052;2023-07-31T13:41:46;3.58;;;1.40;;
23115;SDS011;11727;52.134;5.052;2023-07-31T13:44:11;2.75;;;1.70;;
23115;SDS011;11727;52.134;5.052;2023-07-31T13:46:37;2.05;;;1.10;;
23115;SDS011;11727;52.134;5.052;2023-07-31T13:49:02;4.05;;;1.17;;
23115;SDS011;11727;52.134;5.052;2023-07-31T13:51:28;1.88;;;1.05;;
23115;SDS011;11727;52.134;5.052;2023-07-31T13:53:54;1.90;;;1.17;;
23115;SDS011;11727;52.134;5.052;2023-07-31T13:56:19;1.70;;;1.20;;
23115;SDS011;11727;52.134;5.052;2023-07-31T13:58:45;2.88;;;1.40;;
23115;SDS011;11727;52.134;5.052;2023-07-31T14:01:10;2.45;;;1.20;;
23115;SDS011;11727;52.134;5.052;2023-07-31T14:03:36;2.60;;;1.10;;
23115;SDS011;11727;52.134;5.052;2023-07-31T14:06:02;0.80;;;0.50;;
23115;SDS011;11727;52.134;5.052;2023-07-31T14:08:28;1.73;;;0.77;;
23115;SDS011;11727;52.134;5.052;2023-07-31T14:10:54;1.40;;;0.60;;
23115;SDS011;11727;52.134;5.052;2023-07-31T14:13:23;1.65;;;0.93;;
23115;SDS011;11727;52.134;5.052;2023-07-31T14:15:48;1.85;;;0.88;;
23115;SDS011;11727;52.134;5.052;2023-07-31T14:18:14;1.65;;;0.82;;
23115;SDS011;11727;52.134;5.052;2023-07-31T14:20:39;2.40;;;1.10;;
23115;SDS011;11727;52.134;5.052;2023-07-31T14:23:05;2.72;;;1.00;;
23115;SDS011;11727;52.134;5.052;2023-07-31T14:25:30;1.83;;;0.93;;
23115;SDS011;11727;52.134;5.052;2023-07-31T14:27:56;4.50;;;1.05;;
23115;SDS011;11727;52.134;5.052;2023-07-31T14:30:22;1.63;;;0.82;;
23115;SDS011;11727;52.134;5.052;2023-07-31T14:32:48;1.38;;;0.73;;
23115;SDS011;11727;52.134;5.052;2023-07-31T14:35:14;1.23;;;0.88;;
23115;SDS011;11727;52.134;5.052;2023-07-31T14:37:40;2.00;;;0.70;;
23115;SDS011;11727;52.134;5.052;2023-07-31T14:40:07;1.05;;;0.50;;
23115;SDS011;11727;52.134;5.052;2023-07-31T14:42:34;1.25;;;0.68;;
23115;SDS011;11727;52.134;5.052;2023-07-31T14:45:00;0.80;;;0.50;;
23115;SDS011;11727;52.134;5.052;2023-07-31T14:47:26;5.88;;;0.80;;
23115;SDS011;11727;52.134;5.052;2023-07-31T14:49:51;1.58;;;0.60;;
23115;SDS011;11727;52.134;5.052;2023-07-31T14:52:17;0.55;;;0.40;;
23115;SDS011;11727;52.134;5.052;2023-07-31T14:54:43;1.38;;;0.60;;
23115;SDS011;11727;52.134;5.052;2023-07-31T14:57:09;0.80;;;0.40;;
23115;SDS011;11727;52.134;5.052;2023-07-31T14:59:34;0.68;;;0.43;;
23115;SDS011;11727;52.134;5.052;2023-07-31T15:02:00;1.33;;;0.40;;
23115;SDS011;11727;52.134;5.052;2023-07-31T15:04:25;0.68;;;0.47;;
23115;SDS011;11727;52.134;5.052;2023-07-31T15:06:51;2.63;;;0.63;;
23115;SDS011;11727;52.134;5.052;2023-07-31T15:09:17;2.03;;;0.88;;